Time;durP1;ratioP1;P1;durP2;ratioP2;P2;SDS_P1;SDS_P2;PMS_P1;PMS_P2;Temp;Humidity;BMP_temperature;BMP_pressure;BME280_temperature;BME280_humidity;BME280_pressure;Samples;Min_cycle;Max_cycle;Signal;HPM_P1;HPM_P2
2023/06/24 00:03:16;;;;;;;3.08;1.17;;;;;;;;;;20975189;28;20230;-79
2023/06/24 00:13:19;;;;;;;2.38;1.10;;;;;;;;;;20892127;22;20232;-68
2023/06/24 00:23:26;;;;;;;2.55;1.50;;;;;;;;;;20825889;28;20593;-68
2023/06/24 00:33:28;;;;;;;4.47;1.50;;;;;;;;;;20878171;28;20269;-68
2023/06/24 00:43:29;;;;;;;2.20;1.33;;;;;;;;;;20860316;28;20234;-68
2023/06/24 00:53:31;;;;;;;1.50;1.00;;;;;;;;;;20877352;28;20668;-68
2023/06/24 01:03:34;;;;;;;1.30;0.90;;;;;;;;;;20863908;28;20283;-68
2023/06/24 01:13:36;;;;;;;2.42;1.08;;;;;;;;;;20871011;28;20247;-68
2023/06/24 01:23:50;;;;;;;1.60;0.82;;;;;;;;;;20843680;28;20751;-68
2023/06/24 01:34:11;;;;;;;2.42;1.00;;;23.30;99.90;;;;;;20886230;28;20234;-68
2023/06/24 01:44:14;;;;;;;1.85;1.20;;;;;;;;;;20857696;28;20234;-68
2023/06/24 01:54:22;;;;;;;4.82;2.00;;;23.00;99.90;;;;;;20857152;28;20242;-69
2023/06/24 02:04:31;;;;;;;2.55;1.05;;;;;;;;;;20855205;28;20234;-68
2023/06/24 02:14:41;;;;;;;2.45;1.40;;;22.80;99.90;;;;;;20856770;28;20231;-68
2023/06/24 02:24:43;;;;;;;2.90;1.23;;;22.90;99.90;;;;;;20872206;28;20731;-68
2023/06/24 02:34:45;;;;;;;1.95;1.17;;;;;;;;;;20855308;28;20246;-68
2023/06/24 02:44:47;;;;;;;1.48;1.10;;;;;;;;;;20877484;28;20291;-68
2023/06/24 02:54:49;;;;;;;2.58;1.08;;;;;;;;;;20852438;28;20222;-68
2023/06/24 03:05:16;;;;;;;4.70;1.55;;;;;;;;;;20895266;28;20650;-68
2023/06/24 03:15:19;;;;;;;3.63;1.40;;;;;;;;;;20883637;28;20300;-68
2023/06/24 03:25:21;;;;;;;2.70;1.48;;;;;;;;;;20842233;28;20287;-69
2023/06/24 03:35:24;;;;;;;2.08;1.25;;;;;;;;;;20807739;28;20996;-69
2023/06/24 03:45:30;;;;;;;2.55;1.23;;;;;;;;;;20844234;28;20216;-68
2023/06/24 03:55:32;;;;;;;2.67;1.33;;;;;;;;;;20848120;28;20227;-67
2023/06/24 04:05:34;;;;;;;3.00;1.38;;;;;;;;;;20848996;28;20219;-68
2023/06/24 04:15:36;;;;;;;3.23;1.40;;;;;;;;;;20826192;28;20225;-67
2023/06/24 04:25:38;;;;;;;2.40;1.10;;;;;;;;;;20852062;28;20219;-67
2023/06/24 04:35:40;;;;;;;3.25;1.42;;;;;;;;;;20862704;28;20576;-67
2023/06/24 04:45:42;;;;;;;4.40;1.55;;;;;;;;;;20825406;28;20615;-66
2023/06/24 04:55:44;;;;;;;4.60;1.30;;;;;;;;;;20848571;28;20287;-65
2023/06/24 05:05:46;;;;;;;3.60;1.30;;;;;;;;;;20872349;28;20222;-69
2023/06/24 05:15:48;;;;;;;2.47;1.40;;;;;;;;;;20858361;28;20223;-68
2023/06/24 05:25:50;;;;;;;2.30;1.57;;;;;;;;;;20848953;28;20584;-68
2023/06/24 05:35:52;;;;;;;2.63;1.50;;;;;;;;;;20856339;28;20231;-68
2023/06/24 05:45:54;;;;;;;3.22;1.50;;;;;;;;;;20849679;28;20214;-68
2023/06/24 05:55:55;;;;;;;1.48;1.15;;;;;;;;;;20872780;28;20232;-68
2023/06/24 06:05:57;;;;;;;2.10;1.27;;;;;;;;;;20857326;28;20264;-68
2023/06/24 06:15:59;;;;;;;1.52;1.15;;;;;;;;;;20868144;28;20784;-69
2023/06/24 06:26:01;;;;;;;2.45;1.50;;;;;;;;;;20873613;28;20213;-68
2023/06/24 06:36:03;;;;;;;1.83;1.30;;;;;;;;;;20855183;28;20217;-68
2023/06/24 06:46:04;;;;;;;3.35;1.40;;;;;;;;;;20855263;28;20232;-68
2023/06/24 06:56:06;;;;;;;1.60;1.00;;;;;;;;;;20853103;28;20641;-69
2023/06/24 07:06:08;;;;;;;2.15;1.17;;;;;;;;;;20852841;28;20217;-69
2023/06/24 07:16:10;;;;;;;1.83;1.30;;;;;;;;;;20851938;28;20777;-68
2023/06/24 07:26:12;;;;;;;1.80;1.27;;;;;;;;;;20851936;28;20277;-69
2023/06/24 07:36:14;;;;;;;2.08;1.20;;;;;;;;;;20863643;28;20289;-68
2023/06/24 07:46:15;;;;;;;1.90;1.13;;;;;;;;;;20874100;28;20216;-68
2023/06/24 07:56:17;;;;;;;2.10;1.20;;;;;;;;;;20851016;28;20646;-69
2023/06/24 08:06:19;;;;;;;1.98;1.30;;;;;;;;;;20862509;28;20246;-69
2023/06/24 08:16:21;;;;;;;2.17;1.30;;;;;;;;;;20881490;28;20231;-69
2023/06/24 08:26:23;;;;;;;2.30;1.20;;;;;;;;;;20864809;28;20635;-68
2023/06/24 08:36:27;;;;;;;1.92;1.15;;;25.80;99.90;;;;;;20859893;28;20275;-69
2023/06/24 08:46:30;;;;;;;1.70;0.98;;;;;;;;;;20884109;28;20217;-69
2023/06/24 08:56:33;;;;;;;1.50;1.13;;;26.30;93.60;;;;;;20861377;28;20227;-69
2023/06/24 09:06:35;;;;;;;1.95;1.05;;;;;;;;;;20876590;28;20603;-69
2023/06/24 09:16:38;;;;;;;1.17;0.90;;;;;;;;;;20876730;28;20235;-69
2023/06/24 09:26:46;;;;;;;1.60;0.80;;;26.80;87.90;;;;;;20859673;28;20294;-70
2023/06/24 09:36:53;;;;;;;1.40;1.00;;;27.30;93.60;;;;;;20895313;28;20288;-69
2023/06/24 09:46:56;;;;;;;1.58;0.98;;;27.20;94.30;;;;;;20859183;28;20639;-70
2023/06/24 09:57:00;;;;;;;1.27;0.95;;;;;;;;;;20847533;28;20222;-69
2023/06/24 10:07:02;;;;;;;1.40;1.00;;;;;;;;;;20856278;28;20800;-69
2023/06/24 10:17:04;;;;;;;1.73;1.05;;;;;;;;;;20872301;28;20232;-69
2023/06/24 10:27:08;;;;;;;3.67;0.93;;;;;;;;;;20868671;28;20572;-69
2023/06/24 10:37:13;;;;;;;1.33;0.98;;;;;;;;;;20861857;28;20222;-68
2023/06/24 10:47:15;;;;;;;1.23;0.95;;;;;;;;;;20870186;28;20229;-69
2023/06/24 10:57:25;;;;;;;1.00;0.70;;;29.10;84.60;;;;;;20870143;28;20240;-66
2023/06/24 11:07:30;;;;;;;0.93;0.73;;;29.40;81.20;;;;;;20837807;28;20246;-67
2023/06/24 11:17:33;;;;;;;1.02;0.77;;;;;;;;;;20852398;28;20221;-67
2023/06/24 11:27:35;;;;;;;1.73;0.90;;;;;;;;;;20852417;28;20217;-67
2023/06/24 11:37:38;;;;;;;1.35;0.80;;;;;;;;;;20875172;28;20298;-67
2023/06/24 11:47:40;;;;;;;1.02;0.80;;;;;;;;;;20901312;28;20550;-67
2023/06/24 11:57:51;;;;;;;1.40;0.93;;;;;;;;;;20884059;28;20224;-68
2023/06/24 12:08:00;;;;;;;1.10;0.70;;;;;;;;;;20883269;28;20222;-67
2023/06/24 12:18:02;;;;;;;0.95;0.60;;;;;;;;;;20882252;28;20927;-68
2023/06/24 12:28:05;;;;;;;1.33;0.82;;;;;;;;;;20857786;28;20220;-68
2023/06/24 12:38:07;;;;;;;1.30;0.70;;;;;;;;;;20867179;28;20221;-67
2023/06/24 12:48:08;;;;;;;2.05;0.80;;;;;;;;;;20861802;28;20218;-68
2023/06/24 12:58:11;;;;;;;1.30;0.82;;;;;;;;;;20879317;28;20299;-67
2023/06/24 13:08:12;;;;;;;1.42;0.90;;;;;;;;;;20895508;23;20608;-80
2023/06/24 13:18:14;;;;;;;1.23;1.00;;;;;;;;;;20900580;28;20263;-79
2023/06/24 13:28:16;;;;;;;1.48;0.98;;;;;;;;;;20898812;28;20264;-79
2023/06/24 13:38:17;;;;;;;0.90;0.77;;;;;;;;;;20909604;28;20292;-79
2023/06/24 13:48:19;;;;;;;1.17;0.75;;;;;;;;;;20876765;28;20332;-78
2023/06/24 13:58:21;;;;;;;1.60;1.00;;;;;;;;;;20908723;28;20641;-78
2023/06/24 14:08:23;;;;;;;0.95;0.80;;;;;;;;;;20912811;28;20238;-78
2023/06/24 14:18:26;;;;;;;1.83;0.98;;;;;;;;;;20909653;28;20268;-78
2023/06/24 14:28:27;;;;;;;1.17;1.00;;;;;;;;;;20880059;28;20206;-79
2023/06/24 14:38:30;;;;;;;2.30;0.90;;;;;;;;;;20893848;28;20707;-79
2023/06/24 14:48:31;;;;;;;1.55;0.90;;;;;;;;;;20891035;28;20217;-78
2023/06/24 14:58:33;;;;;;;1.40;0.82;;;;;;;;;;20892024;28;20693;-78
2023/06/24 15:08:37;;;;;;;1.40;0.80;;;32.30;74.00;;;;;;20883076;28;20275;-79
2023/06/24 15:18:49;;;;;;;1.35;0.82;;;;;;;;;;20912954;28;20230;-78
2023/06/24 15:28:52;;;;;;;1.17;0.80;;;;;;;;;;20899758;28;20263;-78
2023/06/24 15:38:53;;;;;;;2.85;1.00;;;32.40;74.80;;;;;;20906559;28;20214;-78
2023/06/24 15:48:56;;;;;;;1.17;0.98;;;;;;;;;;20854997;28;20248;-78
2023/06/24 15:58:57;;;;;;;1.35;1.10;;;;;;;;;;20887972;28;20299;-78
2023/06/24 16:09:00;;;;;;;1.73;1.20;;;;;;;;;;20886682;28;20222;-78
2023/06/24 16:19:02;;;;;;;1.52;0.90;;;;;;;;;;20898668;28;20297;-78
2023/06/24 16:29:04;;;;;;;1.30;0.95;;;;;;;;;;20916187;28;20308;-78
2023/06/24 16:39:08;;;;;;;1.15;0.80;;;33.00;75.80;;;;;;20898548;28;20226;-79
2023/06/24 16:49:10;;;;;;;1.20;0.85;;;;;;;;;;20868774;28;20214;-78
2023/06/24 16:59:11;;;;;;;1.70;1.02;;;;;;;;;;20908375;28;20226;-78
2023/06/24 17:09:13;;;;;;;1.38;0.90;;;;;;;;;;20893789;28;20598;-79
2023/06/24 17:19:15;;;;;;;1.42;1.00;;;;;;;;;;20896253;28;20698;-78
2023/06/24 17:29:17;;;;;;;1.35;0.85;;;;;;;;;;20905897;28;20226;-77
2023/06/24 17:39:18;;;;;;;1.25;0.90;;;;;;;;;;20909123;28;20222;-77
2023/06/24 17:49:20;;;;;;;1.40;1.00;;;;;;;;;;20890715;28;20210;-78
2023/06/24 17:59:22;;;;;;;1.27;0.77;;;;;;;;;;20891809;28;20225;-78
2023/06/24 18:09:24;;;;;;;2.95;1.10;;;;;;;;;;20918211;28;20246;-78
2023/06/24 18:19:25;;;;;;;1.40;0.90;;;;;;;;;;20914199;28;20233;-78
2023/06/24 18:29:27;;;;;;;1.30;0.75;;;;;;;;;;20860737;28;20263;-78
2023/06/24 18:39:29;;;;;;;1.10;0.85;;;;;;;;;;20890181;28;20245;-78
2023/06/24 18:49:31;;;;;;;1.23;0.90;;;;;;;;;;20903089;28;20209;-78
2023/06/24 18:59:32;;;;;;;1.70;1.10;;;;;;;;;;20904155;28;20295;-78
2023/06/24 19:09:35;;;;;;;2.00;1.05;;;29.90;83.20;;;;;;20893876;23;20279;-70
2023/06/24 19:19:37;;;;;;;2.40;1.10;;;;;;;;;;20786149;28;20261;-70
2023/06/24 19:29:39;;;;;;;1.63;0.90;;;;;;;;;;20769641;28;20531;-70
2023/06/24 19:39:41;;;;;;;1.80;1.15;;;;;;;;;;20752606;28;20268;-70
2023/06/24 19:49:53;;;;;;;1.83;1.30;;;;;;;;;;20768691;28;20245;-70
2023/06/24 19:59:55;;;;;;;1.88;1.23;;;;;;;;;;20776519;28;20287;-70
2023/06/24 20:09:56;;;;;;;1.50;0.90;;;;;;;;;;20783472;28;20597;-70
2023/06/24 20:19:58;;;;;;;2.95;1.30;;;;;;;;;;20783493;28;20222;-70
2023/06/24 20:30:00;;;;;;;4.30;1.15;;;;;;;;;;20783155;28;20213;-70
2023/06/24 20:40:02;;;;;;;3.03;1.20;;;;;;;;;;20765777;28;20234;-70
2023/06/24 20:50:05;;;;;;;3.13;2.10;;;28.50;85.70;;;;;;20796808;28;20363;-70
2023/06/24 21:00:07;;;;;;;4.22;1.52;;;28.40;87.70;;;;;;20780021;28;20599;-70
2023/06/24 21:10:09;;;;;;;3.40;1.17;;;27.70;86.00;;;;;;20778860;28;20616;-70
2023/06/24 21:20:12;;;;;;;3.25;1.48;;;;;;;;;;20747164;28;20264;-69
2023/06/24 21:30:14;;;;;;;2.85;1.05;;;;;;;;;;20793606;28;20229;-69
2023/06/24 21:40:17;;;;;;;3.85;1.48;;;;;;;;;;20777734;28;20229;-69
2023/06/24 21:50:20;;;;;;;2.72;1.40;;;;;;;;;;20792845;28;20261;-69
2023/06/24 22:00:22;;;;;;;2.33;1.10;;;;;;;;;;20775359;28;20248;-69
2023/06/24 22:10:24;;;;;;;2.22;1.30;;;;;;;;;;20774309;28;20233;-69
2023/06/24 22:20:26;;;;;;;3.08;1.20;;;;;;;;;;20772890;28;20230;-69
2023/06/24 22:30:28;;;;;;;1.52;1.10;;;;;;;;;;20773323;28;20694;-69
2023/06/24 22:40:30;;;;;;;2.15;1.05;;;;;;;;;;20769992;28;20792;-69
2023/06/24 22:50:32;;;;;;;3.22;1.30;;;;;;;;;;20785556;28;20255;-69
2023/06/24 23:00:33;;;;;;;1.45;1.08;;;;;;;;;;20771293;28;20267;-69
2023/06/24 23:10:36;;;;;;;1.60;1.02;;;26.60;93.50;;;;;;20770754;28;20232;-69
2023/06/24 23:20:40;;;;;;;1.63;1.00;;;;;;;;;;20770075;28;20225;-69
2023/06/24 23:30:47;;;;;;;3.25;1.73;;;26.20;98.30;;;;;;20769084;28;20323;-69
2023/06/24 23:40:49;;;;;;;2.42;1.08;;;;;;;;;;20768810;28;20255;-69
2023/06/24 23:50:50;;;;;;;2.42;1.42;;;;;;;;;;20768554;28;20226;-69
